sensor_id;sensor_type;location;lat;lon;timestamp;pressure;altitude;pressure_sealevel;temperature;humidity
48386;BME280;34644;47.964;7.982;2023-03-12T00:04:45;96199.84;;;15.21;46.38
48386;BME280;34644;47.964;7.982;2023-03-12T00:11:45;96203.59;;;15.20;46.26
48386;BME280;34644;47.964;7.982;2023-03-12T00:18:49;96202.78;;;15.19;46.74
48386;BME280;34644;47.964;7.982;2023-03-12T00:25:49;96192.75;;;15.16;46.95
48386;BME280;34644;47.964;7.982;2023-03-12T00:32:49;96195.38;;;15.16;47.14
48386;BME280;34644;47.964;7.982;2023-03-12T00:39:50;96208.66;;;15.16;47.31
48386;BME280;34644;47.964;7.982;2023-03-12T00:46:50;96207.06;;;15.15;47.42
48386;BME280;34644;47.964;7.982;2023-03-12T00:53:50;96211.31;;;15.16;47.78
48386;BME280;34644;47.964;7.982;2023-03-12T01:00:51;96199.09;;;15.15;47.61
48386;BME280;34644;47.964;7.982;2023-03-12T01:07:51;96213.44;;;15.14;47.65
48386;BME280;34644;47.964;7.982;2023-03-12T01:14:51;96202.81;;;15.14;48.00
48386;BME280;34644;47.964;7.982;2023-03-12T01:21:51;96202.53;;;15.16;47.92
48386;BME280;34644;47.964;7.982;2023-03-12T01:28:52;96199.09;;;15.15;48.07
48386;BME280;34644;47.964;7.982;2023-03-12T01:35:52;96202.81;;;15.14;48.31
48386;BME280;34644;47.964;7.982;2023-03-12T01:42:56;96210.50;;;15.16;48.38
48386;BME280;34644;47.964;7.982;2023-03-12T01:49:57;96215.81;;;15.16;48.51
48386;BME280;34644;47.964;7.982;2023-03-12T01:56:58;96207.84;;;15.16;48.69
48386;BME280;34644;47.964;7.982;2023-03-12T02:04:00;96204.13;;;15.17;48.53
48386;BME280;34644;47.964;7.982;2023-03-12T02:11:01;96199.88;;;15.16;48.67
48386;BME280;34644;47.964;7.982;2023-03-12T02:18:02;96201.75;;;15.15;48.84
48386;BME280;34644;47.964;7.982;2023-03-12T02:32:17;96195.66;;;15.15;49.01
48386;BME280;34644;47.964;7.982;2023-03-12T02:39:19;96197.50;;;15.14;49.20
48386;BME280;34644;47.964;7.982;2023-03-12T02:46:19;96193.28;;;15.13;49.29
48386;BME280;34644;47.964;7.982;2023-03-12T02:53:20;96191.69;;;15.12;49.39
48386;BME280;34644;47.964;7.982;2023-03-12T03:00:20;96181.06;;;15.12;49.36
48386;BME280;34644;47.964;7.982;2023-03-12T03:07:24;96140.75;;;15.10;49.36
48386;BME280;34644;47.964;7.982;2023-03-12T03:14:25;96138.09;;;15.10;49.44
48386;BME280;34644;47.964;7.982;2023-03-12T03:21:26;96144.44;;;15.09;49.49
48386;BME280;34644;47.964;7.982;2023-03-12T03:28:27;96148.97;;;15.09;49.56
48386;BME280;34644;47.964;7.982;2023-03-12T03:35:28;96158.78;;;15.08;49.72
48386;BME280;34644;47.964;7.982;2023-03-12T03:42:29;96166.75;;;15.08;49.77
48386;BME280;34644;47.964;7.982;2023-03-12T03:49:29;96172.03;;;15.08;49.77
48386;BME280;34644;47.964;7.982;2023-03-12T03:56:30;96157.22;;;15.07;49.78
48386;BME280;34644;47.964;7.982;2023-03-12T04:03:32;96161.69;;;15.07;49.99
48386;BME280;34644;47.964;7.982;2023-03-12T04:10:33;96155.06;;;15.09;49.93
48386;BME280;34644;47.964;7.982;2023-03-12T04:17:33;96151.31;;;15.15;49.81
48386;BME280;34644;47.964;7.982;2023-03-12T04:24:35;96162.44;;;15.17;49.96
48386;BME280;34644;47.964;7.982;2023-03-12T04:31:35;96161.63;;;15.22;50.05
48386;BME280;34644;47.964;7.982;2023-03-12T04:38:36;96138.53;;;15.23;50.19
48386;BME280;34644;47.964;7.982;2023-03-12T04:45:37;96142.50;;;15.25;49.95
48386;BME280;34644;47.964;7.982;2023-03-12T04:52:38;96142.75;;;15.29;50.14
48386;BME280;34644;47.964;7.982;2023-03-12T04:59:40;96142.19;;;15.32;49.97
48386;BME280;34644;47.964;7.982;2023-03-12T05:06:40;96144.25;;;15.40;49.79
48386;BME280;34644;47.964;7.982;2023-03-12T05:13:41;96151.41;;;15.45;49.69
48386;BME280;34644;47.964;7.982;2023-03-12T05:20:41;96171.31;;;15.47;49.93
48386;BME280;34644;47.964;7.982;2023-03-12T05:27:42;96163.84;;;15.49;49.81
48386;BME280;34644;47.964;7.982;2023-03-12T05:34:42;96141.81;;;15.49;49.90
48386;BME280;34644;47.964;7.982;2023-03-12T05:41:43;96146.88;;;15.50;50.07
48386;BME280;34644;47.964;7.982;2023-03-12T05:48:48;96126.41;;;15.51;50.01
48386;BME280;34644;47.964;7.982;2023-03-12T05:55:49;96126.41;;;15.51;50.12
48386;BME280;34644;47.964;7.982;2023-03-12T06:02:49;96134.09;;;15.52;50.12
48386;BME280;34644;47.964;7.982;2023-03-12T06:09:50;96129.88;;;15.51;50.30
48386;BME280;34644;47.964;7.982;2023-03-12T06:16:50;96136.25;;;15.50;50.29
48386;BME280;34644;47.964;7.982;2023-03-12T06:23:51;96138.38;;;15.48;50.48
48386;BME280;34644;47.964;7.982;2023-03-12T06:31:00;96148.75;;;15.50;50.67
48386;BME280;34644;47.964;7.982;2023-03-12T06:38:00;96144.47;;;15.49;50.65
48386;BME280;34644;47.964;7.982;2023-03-12T06:45:01;96162.28;;;15.48;50.62
48386;BME280;34644;47.964;7.982;2023-03-12T06:52:01;96164.66;;;15.50;50.71
48386;BME280;34644;47.964;7.982;2023-03-12T06:59:01;96173.97;;;15.47;50.92
48386;BME280;34644;47.964;7.982;2023-03-12T07:06:01;96197.88;;;15.47;50.91
48386;BME280;34644;47.964;7.982;2023-03-12T07:13:02;96202.28;;;15.67;50.49
48386;BME280;34644;47.964;7.982;2023-03-12T07:20:02;96197.06;;;16.26;50.17
48386;BME280;34644;47.964;7.982;2023-03-12T07:27:02;96207.25;;;16.48;50.01
48386;BME280;34644;47.964;7.982;2023-03-12T07:34:03;96214.19;;;16.44;50.30
48386;BME280;34644;47.964;7.982;2023-03-12T07:41:05;96213.41;;;16.43;50.33
48386;BME280;34644;47.964;7.982;2023-03-12T07:48:05;96209.84;;;16.53;50.33
48386;BME280;34644;47.964;7.982;2023-03-12T07:55:06;96227.25;;;16.40;50.30
48386;BME280;34644;47.964;7.982;2023-03-12T08:02:08;96228.66;;;16.33;50.31
48386;BME280;34644;47.964;7.982;2023-03-12T08:09:08;96245.94;;;16.35;50.51
48386;BME280;34644;47.964;7.982;2023-03-12T08:16:09;96248.81;;;16.39;50.52
48386;BME280;34644;47.964;7.982;2023-03-12T08:23:09;96261.06;;;16.40;50.76
48386;BME280;34644;47.964;7.982;2023-03-12T08:30:10;96269.81;;;16.70;51.89
48386;BME280;34644;47.964;7.982;2023-03-12T08:37:10;96257.19;;;16.80;52.21
48386;BME280;34644;47.964;7.982;2023-03-12T08:44:10;96259.16;;;16.70;51.63
48386;BME280;34644;47.964;7.982;2023-03-12T08:51:10;96262.06;;;16.44;51.79
48386;BME280;34644;47.964;7.982;2023-03-12T08:58:11;96268.50;;;16.38;51.77
48386;BME280;34644;47.964;7.982;2023-03-12T09:05:12;96279.22;;;16.27;51.67
48386;BME280;34644;47.964;7.982;2023-03-12T09:12:12;96286.16;;;16.23;51.56
48386;BME280;34644;47.964;7.982;2023-03-12T09:19:12;96288.88;;;16.18;51.34
48386;BME280;34644;47.964;7.982;2023-03-12T09:26:13;96304.84;;;16.13;51.36
48386;BME280;34644;47.964;7.982;2023-03-12T09:33:13;96312.28;;;16.11;51.67
48386;BME280;34644;47.964;7.982;2023-03-12T09:40:18;96328.78;;;16.08;51.58
48386;BME280;34644;47.964;7.982;2023-03-12T09:47:23;96327.22;;;16.07;51.52
48386;BME280;34644;47.964;7.982;2023-03-12T10:01:58;96346.38;;;16.04;51.50
48386;BME280;34644;47.964;7.982;2023-03-12T10:16:09;96361.00;;;16.01;51.69
48386;BME280;34644;47.964;7.982;2023-03-12T10:30:29;96378.84;;;15.96;51.97
48386;BME280;34644;47.964;7.982;2023-03-12T10:37:32;96388.94;;;15.94;51.91
48386;BME280;34644;47.964;7.982;2023-03-12T10:44:36;96395.34;;;15.93;51.99
48386;BME280;34644;47.964;7.982;2023-03-12T10:51:50;96396.91;;;15.94;51.90
48386;BME280;34644;47.964;7.982;2023-03-12T10:58:52;96403.31;;;15.93;51.92
48386;BME280;34644;47.964;7.982;2023-03-12T11:05:54;96405.97;;;15.93;51.96
48386;BME280;34644;47.964;7.982;2023-03-12T11:19:54;96415.00;;;15.91;51.87
48386;BME280;34644;47.964;7.982;2023-03-12T11:34:32;96420.13;;;16.33;51.34
48386;BME280;34644;47.964;7.982;2023-03-12T11:41:40;96423.72;;;16.57;50.90
48386;BME280;34644;47.964;7.982;2023-03-12T12:10:41;96378.25;;;16.88;50.62
48386;BME280;34644;47.964;7.982;2023-03-12T12:25:11;96374.72;;;16.98;50.57
48386;BME280;34644;47.964;7.982;2023-03-12T12:32:16;96378.63;;;17.06;50.57
48386;BME280;34644;47.964;7.982;2023-03-12T12:39:23;96382.41;;;17.05;50.63
48386;BME280;34644;47.964;7.982;2023-03-12T12:46:29;96395.13;;;17.08;50.68
48386;BME280;34644;47.964;7.982;2023-03-12T12:53:35;96399.47;;;16.98;50.79
48386;BME280;34644;47.964;7.982;2023-03-12T13:00:42;96393.16;;;16.89;51.01
48386;BME280;34644;47.964;7.982;2023-03-12T13:07:44;96382.81;;;16.88;51.06
48386;BME280;34644;47.964;7.982;2023-03-12T13:14:45;96385.69;;;16.91;51.09
48386;BME280;34644;47.964;7.982;2023-03-12T13:21:51;96382.00;;;16.82;51.24
48386;BME280;34644;47.964;7.982;2023-03-12T13:28:55;96382.59;;;16.74;51.47
48386;BME280;34644;47.964;7.982;2023-03-12T13:43:16;96394.59;;;16.71;51.43
48386;BME280;34644;47.964;7.982;2023-03-12T13:50:29;96385.22;;;16.79;51.45
48386;BME280;34644;47.964;7.982;2023-03-12T13:57:40;96369.25;;;16.79;51.44
48386;BME280;34644;47.964;7.982;2023-03-12T14:04:40;96370.91;;;16.70;51.66
48386;BME280;34644;47.964;7.982;2023-03-12T14:18:42;96359.25;;;16.66;51.77
48386;BME280;34644;47.964;7.982;2023-03-12T14:25:43;96367.16;;;16.76;51.57
48386;BME280;34644;47.964;7.982;2023-03-12T14:32:45;96354.41;;;16.73;51.75
48386;BME280;34644;47.964;7.982;2023-03-12T14:46:54;96359.53;;;16.64;51.92
48386;BME280;34644;47.964;7.982;2023-03-12T14:53:55;96356.66;;;16.60;52.02
48386;BME280;34644;47.964;7.982;2023-03-12T15:00:57;96351.31;;;16.60;52.11
48386;BME280;34644;47.964;7.982;2023-03-12T15:08:00;96363.03;;;16.59;51.99
48386;BME280;34644;47.964;7.982;2023-03-12T15:15:05;96380.59;;;16.55;52.13
48386;BME280;34644;47.964;7.982;2023-03-12T15:22:08;96385.69;;;16.52;52.28
48386;BME280;34644;47.964;7.982;2023-03-12T15:29:15;96384.38;;;16.49;52.20
48386;BME280;34644;47.964;7.982;2023-03-12T15:36:26;96370.78;;;16.51;52.16
48386;BME280;34644;47.964;7.982;2023-03-12T15:43:26;96362.59;;;16.47;52.20
48386;BME280;34644;47.964;7.982;2023-03-12T15:50:31;96366.84;;;16.43;52.25
48386;BME280;34644;47.964;7.982;2023-03-12T15:57:33;96361.84;;;16.41;52.29
48386;BME280;34644;47.964;7.982;2023-03-12T16:04:33;96366.34;;;16.41;52.39
48386;BME280;34644;47.964;7.982;2023-03-12T16:11:34;96356.78;;;16.40;52.35
48386;BME280;34644;47.964;7.982;2023-03-12T16:18:35;96371.44;;;16.37;52.35
48386;BME280;34644;47.964;7.982;2023-03-12T16:25:36;96370.09;;;16.35;52.39
48386;BME280;34644;47.964;7.982;2023-03-12T16:32:36;96367.16;;;16.36;52.55
48386;BME280;34644;47.964;7.982;2023-03-12T16:39:37;96357.09;;;16.33;52.68
48386;BME280;34644;47.964;7.982;2023-03-12T16:46:37;96348.31;;;16.33;52.57
48386;BME280;34644;47.964;7.982;2023-03-12T16:53:37;96350.22;;;15.67;48.43
48386;BME280;34644;47.964;7.982;2023-03-12T17:00:37;96353.97;;;15.61;47.46
48386;BME280;34644;47.964;7.982;2023-03-12T17:07:38;96354.47;;;15.73;48.28
48386;BME280;34644;47.964;7.982;2023-03-12T17:14:38;96348.28;;;15.93;49.60
48386;BME280;34644;47.964;7.982;2023-03-12T17:21:39;96346.41;;;15.99;50.04
48386;BME280;34644;47.964;7.982;2023-03-12T17:28:39;96349.59;;;16.01;50.44
48386;BME280;34644;47.964;7.982;2023-03-12T17:35:39;96381.47;;;16.01;50.63
48386;BME280;34644;47.964;7.982;2023-03-12T17:42:40;96389.19;;;16.02;50.82
48386;BME280;34644;47.964;7.982;2023-03-12T17:49:40;96385.44;;;16.03;51.10
48386;BME280;34644;47.964;7.982;2023-03-12T17:56:40;96389.69;;;16.04;51.26
48386;BME280;34644;47.964;7.982;2023-03-12T18:03:41;96405.88;;;16.08;51.49
48386;BME280;34644;47.964;7.982;2023-03-12T18:10:42;96405.59;;;16.09;52.37
48386;BME280;34644;47.964;7.982;2023-03-12T18:17:43;96414.66;;;16.08;52.42
48386;BME280;34644;47.964;7.982;2023-03-12T18:24:44;96418.63;;;16.11;52.67
48386;BME280;34644;47.964;7.982;2023-03-12T18:31:44;96421.56;;;16.09;52.84
48386;BME280;34644;47.964;7.982;2023-03-12T18:38:44;96413.31;;;16.11;53.07
48386;BME280;34644;47.964;7.982;2023-03-12T18:45:45;96418.91;;;16.09;53.38
48386;BME280;34644;47.964;7.982;2023-03-12T18:52:45;96415.72;;;16.07;53.75
48386;BME280;34644;47.964;7.982;2023-03-12T18:59:45;96416.78;;;16.06;53.57
48386;BME280;34644;47.964;7.982;2023-03-12T19:06:46;96425.84;;;16.05;53.53
48386;BME280;34644;47.964;7.982;2023-03-12T19:13:48;96418.16;;;16.04;53.59
48386;BME280;34644;47.964;7.982;2023-03-12T19:20:51;96405.91;;;16.03;53.64
48386;BME280;34644;47.964;7.982;2023-03-12T19:27:52;96424.78;;;16.01;53.52
48386;BME280;34644;47.964;7.982;2023-03-12T19:34:52;96430.91;;;16.02;53.41
48386;BME280;34644;47.964;7.982;2023-03-12T19:41:52;96421.63;;;15.99;53.37
48386;BME280;34644;47.964;7.982;2023-03-12T19:48:53;96438.63;;;15.98;53.25
48386;BME280;34644;47.964;7.982;2023-03-12T19:55:53;96449.53;;;15.97;53.24
48386;BME280;34644;47.964;7.982;2023-03-12T20:02:53;96438.91;;;15.97;53.27
48386;BME280;34644;47.964;7.982;2023-03-12T20:09:53;96450.63;;;15.96;53.46
48386;BME280;34644;47.964;7.982;2023-03-12T20:16:54;96450.06;;;15.94;53.44
48386;BME280;34644;47.964;7.982;2023-03-12T20:23:54;96456.19;;;15.94;53.42
48386;BME280;34644;47.964;7.982;2023-03-12T20:30:55;96469.75;;;15.93;53.53
48386;BME280;34644;47.964;7.982;2023-03-12T20:37:55;96467.38;;;15.91;53.39
48386;BME280;34644;47.964;7.982;2023-03-12T20:44:55;96474.53;;;15.90;53.50
48386;BME280;34644;47.964;7.982;2023-03-12T20:51:55;96464.16;;;15.89;53.57
48386;BME280;34644;47.964;7.982;2023-03-12T20:58:56;96458.34;;;15.87;53.51
48386;BME280;34644;47.964;7.982;2023-03-12T21:05:59;96455.69;;;15.87;53.46
48386;BME280;34644;47.964;7.982;2023-03-12T21:12:59;96448.75;;;15.86;53.65
48386;BME280;34644;47.964;7.982;2023-03-12T21:20:00;96432.03;;;15.85;53.40
48386;BME280;34644;47.964;7.982;2023-03-12T21:27:00;96415.31;;;15.85;53.66
48386;BME280;34644;47.964;7.982;2023-03-12T21:34:00;96433.88;;;15.90;53.46
48386;BME280;34644;47.964;7.982;2023-03-12T21:41:04;96435.22;;;15.93;53.65
48386;BME280;34644;47.964;7.982;2023-03-12T21:48:05;96412.06;;;15.93;54.16
48386;BME280;34644;47.964;7.982;2023-03-12T21:55:06;96403.84;;;15.95;55.98
48386;BME280;34644;47.964;7.982;2023-03-12T22:02:09;96386.81;;;15.96;55.66
48386;BME280;34644;47.964;7.982;2023-03-12T22:09:12;96374.31;;;15.96;54.96
48386;BME280;34644;47.964;7.982;2023-03-12T22:16:13;96389.47;;;15.96;55.40
48386;BME280;34644;47.964;7.982;2023-03-12T22:23:14;96376.19;;;15.96;54.37
48386;BME280;34644;47.964;7.982;2023-03-12T22:30:14;96346.97;;;15.96;54.46
48386;BME280;34644;47.964;7.982;2023-03-12T22:37:14;96346.16;;;15.95;54.91
48386;BME280;34644;47.964;7.982;2023-03-12T22:44:15;96341.66;;;15.96;54.87
48386;BME280;34644;47.964;7.982;2023-03-12T22:51:15;96341.66;;;15.96;54.68
48386;BME280;34644;47.964;7.982;2023-03-12T22:58:15;96333.41;;;15.97;54.94
48386;BME280;34644;47.964;7.982;2023-03-12T23:05:15;96327.25;;;15.97;55.05
48386;BME280;34644;47.964;7.982;2023-03-12T23:12:16;96319.28;;;15.97;55.06
48386;BME280;34644;47.964;7.982;2023-03-12T23:19:16;96307.59;;;15.98;54.95
48386;BME280;34644;47.964;7.982;2023-03-12T23:26:20;96285.56;;;15.97;55.12
48386;BME280;34644;47.964;7.982;2023-03-12T23:33:21;96275.72;;;15.98;54.97
48386;BME280;34644;47.964;7.982;2023-03-12T23:40:22;96272.00;;;15.99;55.14
48386;BME280;34644;47.964;7.982;2023-03-12T23:47:22;96277.31;;;15.99;55.56
48386;BME280;34644;47.964;7.982;2023-03-12T23:54:22;96272.00;;;15.99;55.55
